Latest Observation

114 Stations

10 Minute Data
as of 9/3/26 10:32 PM PDT
Station Date Time Temp (°F) RH (%) Dew Pt (°F) Wind Spd (mph) Wind Dir (°) Wind Gust (mph) Wind Gst Dir (°) Latest Rain (In) Soil Moist (%) Soil Temp (°F) Daily Rain (In) Daily Min Temp (°F) Daily Max Temp (°F) Daily Max Wind (mph)
Hobart Mills 9/3/26 2230 49.0   0.8 84   18 44.4   5.4 2.6   0.1 S | 176 11.9   2.4 SW | 235 0.00 7.5   0.0 63.4   2.1 0.01 48.3   3.7 57.0   4.8 20.5   0.9
Prosser Dam 9/3/26 2230 52.5   1.5 69   9 42.5   5.3 3.9   1.0 S | 181 11.9   1.2 S | 177 0.00 5.2   0.1 61.3   0.9 0.00 50.1   8.6 59.5   2.2 22.0   7.6
West Incline Village 9/3/26 2230 46.3   1.4 81   17 40.9   7.4 5.0   2.9 S | 181 12.3   4.0 S | 181 0.00 11.7   0.0 56.8   0.9 0.00 44.5   4.1 52.2   1.8 22.5   4.3
Incline Village (Fairview Blvd) 9/3/26 2230 48.3   1.4 76   15 41.3   7.1 1.7   0.3 SW | 226 9.9   2.4 WSW | 250 0.00 7.7   0.0 69.6   1.1 0.00 46.4   3.6 54.1   3.4 21.5   0.2
Incline Village (Diamond Peak) 9/3/26 2230 46.2   2.4 77   10 39.4   5.7 2.9   0.1 NNE | 32 5.7   0.1 SW | 227 0.00 2.5   0.0 58.4   1.3 0.00 43.6   3.4 50.7   2.9 15.2   0.4
Incline Village (Mill Creek) 9/3/26 2230 51.0 69 41.2 4.0 WSW | 252 11.3 NNW | 332 0.00 2.9 61.5 0.00 49.4 57.0 18.9
Incline Village (Lakeshore Blvd) 9/3/26 2230 53.6   5.8 72   3 45.0   6.8 9.7   9.0 SW | 224 19.5   16.3 SSW | 212 0.00 24.4   3.0 60.3   0.1 0.00 50.5   3.0 56.8   0.4 19.5   1.0
Glenbrook 9/3/26 2230 53.2   0.0 64   6 41.6   2.5 11.5   4.9 WSW | 240 21.1   4.3 WSW | 245 0.00 43.2   0.1 58.4   0.3 0.00 51.5   2.8 57.8   1.3 26.1   0.1
Zephyr Cove 9/3/26 2230 51.0   1.6 62   0 38.6   1.6 1.7   1.5 SE | 145 7.3   5.5 S | 180 0.00 2.8   0.1 62.2   4.2 0.00 47.8   2.6 58.7   2.6 13.2   1.5
Kingsbury Grade 9/3/26 2230 49.1   2.7 66   8 38.2   0.2 2.1   0.1 W | 268 7.2   1.5 WSW | 241 0.00 2.2   0.2 65.9   0.8 0.00 44.2   2.8 60.1   0.5 17.0   3.5
South Daggett Pass (Ridge) 9/3/26 2230 45.8   2.9 71   10 37.0   0.4 2.5   0.0 WSW | 254 15.5   7.4 W | 270 0.00 2.2   0.0 61.8   0.9 0.00 40.6   2.1 55.6   0.1 25.3   3.0
Palomino Valley 9/3/26 2230 60.5   1.0 49   12 41.2   7.8 3.1   1.7 E | 83 6.5   3.7 ENE | 57 0.00 6.6   0.0 75.9   0.3 0.00 51.7   2.4 72.1   2.8 33.3   0.1
East Cold Springs 9/3/26 2230 54.0   0.1 66   14 42.8   5.9 6.9   9.0 SW | 233 11.7   13.5 SW | 222 0.00 1.6   0.0 70.9   0.3 0.00 51.9   5.3 66.1   0.1 30.7   0.2
Peavine 9/3/26 2230 52.8   1.3 63   28 40.5   13.8 11.0   26.4 SW | 225 24.1   25.0 SSW | 200 0.00 4.3   0.1 68.6   1.2 0.00 51.2   0.2 62.1   0.7 46.8   4.9
West Verdi Peak 9/3/26 2330 47.4   1.1 86   22 43.3   6.8 5.8   0.4 SSE | 156 13.9   0.1 SSE | 160 0.00 6.5   0.0 67.2   2.0 0.01 47.3   4.5 58.6   1.5 21.7   4.5
West Verdi 9/3/26 2230 55.6   0.4 65   15 44.0   6.5 5.2   7.0 SSW | 199 16.2   5.8 SSE | 157 0.00 6.2   0.0 78.7   1.1 0.00 54.8   4.6 64.2   1.3 36.5   1.1
South Verdi 9/3/26 2230 55.9   1.6 58   10 41.5   6.1 23.7   1.3 SW | 220 39.4   7.9 SSW | 194 0.00 10.4   0.1 70.8   1.1 0.00 53.4   4.2 61.9   2.0 44.8   0.1
Northwest Reno 9/3/26 2230 58.1   1.7 53   8 41.4   5.4 9.9   21.4 SW | 220 20.2   18.4 SW | 220 0.00 24.7   0.1 74.8   1.1 0.00 55.2   3.2 65.5   0.2 50.6   2.6
North Lawton 8/28/26 1620 63.8   17.1 74   52 55.4   16.5 1.5   11.6 ESE | 121 5.1   19.0 SE | 124 0.00 - 78.2   0.0 0.05 59.2   7.5 71.9   13.3 20.4   4.6
West Reno (Mogul) 9/3/26 2230 58.2   0.5 52   18 40.9   10.8 6.2   9.2 NNE | 21 9.7   16.8 N | 0 0.00 19.5   0.0 77.2   1.0 0.00 55.3   4.2 66.3   1.5 32.2   1.1
Caughlin (Hunter Lake Trail) 9/3/26 2230 57.0   1.8 56   32 41.6   18.9 11.7   13.8 SE | 127 20.0   19.2 SE | 131 0.00 16.3   0.1 72.3   0.4 0.00 55.0   5.0 65.2   0.4 42.8   3.2
ArrowCreek 9/3/26 2230 54.0   4.6 51   20 36.3   8.4 15.3   5.3 SSE | 147 29.1   11.0 SSE | 168 0.00 - 32.0   0.0 0.01 11.2   39.3 66.8   0.2 37.9   2.4
Tracy 9/3/26 2230 64.4   0.7 42   9 40.7   7.0 6.6   5.6 SW | 232 14.9   6.5 SW | 223 0.00 15.7   0.1 77.7   0.0 0.00 58.3   2.1 73.1   1.2 31.7   2.4
Virginia Highlands 9/3/26 2230 54.9   2.4 54   3 38.4   0.6 4.8   2.9 S | 188 13.5   6.7 SSW | 212 0.00 7.9   0.1 72.2   1.4 0.00 49.2   0.5 63.6   3.5 30.6   6.0
Virginia City 9/3/26 2230 54.1   2.1 52   7 37.0   5.4 15.9   6.6 S | 182 27.6   12.9 SSW | 204 0.00 4.8   0.1 72.4   0.1 0.00 49.9   2.6 63.8   3.5 39.6   9.2
Six Mile Canyon 9/3/26 2230 63.3   1.1 40   8 38.3   6.6 11.0   4.3 SW | 230 15.5   7.3 SSW | 206 0.00 12.3   0.1 76.3   1.1 0.00 54.5   0.1 73.5   3.4 35.5   9.8
Mt Rose Highway 9/3/26 2230 46.0   2.2 79   41 39.8   16.3 5.3   0.4 SSW | 203 18.5   2.7 S | 186 0.00 7.4   0.0 60.6   0.7 0.02 44.7   1.6 56.0   0.7 35.3   0.1
Pleasant Valley 9/3/26 2230 59.8   0.2 51   11 41.4   6.6 9.1   7.3 SSW | 206 16.6   12.7 S | 184 0.00 2.3   0.0 76.2   0.1 0.00 56.1   1.6 67.6   1.3 36.9   2.1
New Washoe City 9/3/26 2230 58.8   1.6 47   2 38.9   0.2 9.3   1.6 SSW | 202 16.3   3.1 SSW | 213 0.00 3.5   0.0 71.4   1.3 0.00 52.8   0.5 66.9   1.0 29.6   2.1
Franktown Creek 9/3/26 2230 59.0   1.6 53   4 42.1   3.6 5.7   4.2 SSW | 199 13.4   7.3 SSW | 193 0.00 7.0   0.0 70.9   0.8 0.00 56.1   2.4 66.7   1.0 32.9   3.6
Musgrove Creek 9/3/26 2230 56.1   5.4 55   7 40.2   1.8 1.3   0.4 NE | 54 5.8   3.2 ENE | 70 0.00 10.3   0.0 59.9   0.5 0.00 50.8   1.0 63.9   0.6 22.6   1.0
East Carson 11/23/24 0110 28.6   28.4 - - 4.7   11.0 SW | 220 14.7   10.1 SW | 219 0.02 - 50.9   0.1 0.02 -25.9   79.1 42.9   14.6 16.0   10.7
Kings Canyon 9/3/26 2230 58.1   1.2 49   7 39.2   4.8 4.7   1.2 SSE | 167 13.4   0.8 SSE | 147 0.00 4.2   0.1 68.4   1.6 0.00 54.1   3.1 65.7   0.0 29.4   1.4
Carson City (Voltaire Canyon) 9/3/26 2230 59.5   0.3 48   16 39.7   9.9 28.5   12.2 S | 189 40.5   16.9 SSW | 205 0.00 2.8   0.0 77.0   1.2 0.00 53.3   0.4 68.9   0.8 41.2   8.4
Jacks Valley 9/3/26 2230 58.5   0.6 48   19 38.9   12.1 15.4   5.8 SW | 232 35.8   22.0 SSW | 196 0.00 4.7   0.1 77.6   0.5 0.00 54.3   2.0 67.9   0.6 39.4   3.3
Genoa 9/3/26 2230 61.0   3.5 47   1 40.5   2.5 2.1   2.1 WNW | 282 7.3   5.1 NNW | 327 0.00 2.3   0.0 70.4   2.0 0.00 55.3   2.4 71.0   0.2 19.0   2.7
South Genoa (Walleys Hot Springs) 9/3/26 2230 62.7   0.6 43   10 39.9   6.9 6.6   4.6 S | 184 14.2   6.1 SSW | 199 0.00 5.0   0.3 73.7   0.5 0.00 48.4   5.8 70.6   0.3 29.8   1.9
SW Gardnerville (HWY 88) 9/3/26 2230 60.7   2.4 46   4 39.8   4.4 17.0   17.0 SE | 146 24.3   24.3 SE | 143 0.00 2.8   0.0 68.2   1.0 0.00 46.1   5.7 70.8   0.6 36.4   6.1
Sheridan 9/3/26 2230 60.6   4.4 45   0 39.2   4.2 7.0   4.3 ESE | 107 14.2   9.3 ESE | 109 0.00 1.1   0.0 72.6   0.7 0.00 49.0   1.8 72.7   1.4 26.7   0.4
Ruhenstroth 9/3/26 2230 59.4   1.2 44   1 37.8   1.8 16.7   6.2 S | 182 26.6   10.2 SSW | 199 0.00 6.9   0.0 75.1   0.0 0.00 54.3   0.1 70.0   0.9 35.8   4.5
Double Spring 9/3/26 2230 56.0   6.9 51   5 38.2   4.2 2.8   0.4 SW | 220 5.6   0.9 SSW | 204 0.00 25.2   0.1 72.3   0.1 0.00 38.7   0.2 66.6   1.7 27.1   3.9
North Topaz Lake 9/3/26 2230 58.9   0.8 48   13 39.2   8.6 3.4   3.9 S | 187 6.7   3.5 SSE | 166 0.00 7.7   0.1 73.8   1.9 0.00 54.5   1.8 71.2   2.1 28.9   1.0
Wild Oat Mountain 9/3/26 2230 56.9   0.1 50   17 38.4   10.7 6.4   8.7 SSW | 199 12.3   12.8 SSW | 200 0.00 5.8   0.0 73.4   0.8 0.00 52.0   2.2 68.7   1.0 31.7   2.2
Smith Valley 9/3/26 2230 63.5   1.0 41   18 39.3   14.0 3.4   11.7 WSW | 242 9.7   14.5 SSW | 210 0.00 2.9   0.1 79.6   0.7 0.00 57.2   3.4 76.2   3.3 31.4   0.7
Pine Grove Mountain 9/3/26 2230 48.1   1.8 55   22 32.7   10.8 6.5   0.1 S | 180 11.9   0.2 S | 176 0.00 6.7   0.1 67.1   1.5 0.00 45.3   1.9 63.5   2.4 30.8   2.1
Paradise Hill 9/3/26 2230 62.3   2.2 46   8 41.4   6.9 9.2   1.6 W | 266 13.9   0.9 W | 262 0.00 9.9   0.1 74.1   1.0 0.00 55.8   1.6 72.6   5.0 30.6   9.3
Winnemucca 9/3/26 2230 62.1   2.0 46   11 40.9   8.6 7.7   2.7 SW | 231 13.9   7.1 W | 274 0.00 5.7   0.1 73.7   1.0 0.00 55.0   3.1 73.8   4.6 25.3   8.0
NE Elko 9/3/26 2230 64.0   4.1 28   2 30.5   5.6 2.7   0.7 SSW | 211 6.7   3.5 WSW | 246 0.00 5.7   0.0 75.4   1.9 0.00 52.2   0.1 78.8   7.7 25.7   1.2
North Elko 9/3/26 2230 62.1   3.0 30   3 30.4   4.8 3.4   0.1 SSE | 162 5.2   0.6 SE | 143 0.00 24.6   0.1 73.1   0.6 0.00 53.5   2.9 76.7   7.7 26.4   10.4
South Elko 9/3/26 2230 61.5   3.3 32   3 31.2   5.0 6.5   6.2 W | 270 11.2   9.1 WSW | 248 0.00 13.7   0.1 72.3   2.8 0.00 53.6   2.6 - 28.0   3.5
Lamoille 9/3/26 2230 61.6   5.9 32   1 31.5   6.2 9.8   5.0 SSW | 210 11.9   5.8 SW | 216 0.00 6.3   0.1 69.5   1.6 0.00 52.9   1.3 74.6   4.6 26.3   1.6
Reid Gardner Sub 9/3/26 2230 84.4   2.6 14   4 30.7   6.4 4.6   2.4 SSE | 160 7.2   7.0 S | 170 0.00 26.4   0.3 90.0   0.8 0.00 64.4   9.5 97.4   0.5 26.0   6.8
Corn Creek 9/3/26 2230 81.0   2.9 19   9 34.8   16.8 14.2   12.4 E | 92 21.0   15.8 ESE | 110 0.00 3.1   0.0 89.4   2.7 0.00 68.6   0.1 92.4   1.8 41.1   15.6
Lucky Strike 9/3/26 2230 69.1   1.3 18   10 24.2   16.5 5.7   1.4 SSW | 199 9.6   1.7 SSW | 208 0.00 3.2   0.1 85.6   0.9 0.00 62.6   0.9 81.0   1.0 31.2   3.1
Lower Angel Peak 9/3/26 2230 59.5   0.4 25   12 23.8   15.8 5.1   0.8 SSW | 197 7.5   0.6 SSW | 208 0.00 3.1   0.1 74.3   0.9 0.00 53.6   0.1 76.2   1.2 22.8   0.4
Angel Peak 9/3/26 2230 57.8   1.0 24   11 21.1   14.8 3.0   3.3 WSW | 248 8.6   4.4 W | 273 0.00 2.4   0.1 68.7   0.4 0.00 53.8   3.0 65.1   1.7 28.3   16.9
Upper Kyle Canyon 9/3/26 2230 59.7   0.4 26   13 24.5   15.1 14.5   4.0 WNW | 289 30.4   5.1 W | 264 0.00 7.8   0.0 76.1   0.2 0.00 57.6   1.3 69.5   1.4 35.9   0.6
Mt Charleston 9/3/26 2230 59.9   0.9 27   13 25.6   15.1 10.3   1.3 WSW | 249 21.7   1.5 W | 267 0.00 13.2   0.1 66.8   1.2 0.00 58.0   2.0 68.9   1.1 27.4   4.5
Mid Kyle Canyon 9/3/26 2230 66.3   0.0 23   11 27.4   15.1 6.5   0.5 SW | 228 12.3   1.0 WSW | 241 0.00 5.8   0.0 75.9   0.0 0.00 56.6   0.5 76.5   0.8 32.0   1.2
Blue Diamond 9/3/26 2230 74.6   2.8 19   7 29.5   9.6 1.7   0.4 NW | 311 6.1   4.2 WNW | 302 0.00 1.3   0.0 88.6   0.2 0.00 66.9   0.1 87.4   0.4 30.1   1.5
Artesian Sub 9/3/26 2230 87.6   0.9 15   4 33.7   8.7 2.7   3.2 SE | 141 5.1   4.7 SE | 138 0.00 11.7   0.0 92.5   0.6 0.00 76.9   0.7 98.7   1.0 23.2   0.7
North Henderson 9/3/26 2230 89.0   0.7 15   5 35.4   9.5 7.7   2.5 SSE | 148 10.7   1.0 SE | 146 0.00 10.5   0.1 95.9   0.7 0.00 77.8   2.6 99.2   1.4 27.7   1.2
Sandy Valley 9/3/26 2230 77.1   1.9 24   9 37.8   10.2 3.1   2.5 SSE | 163 7.5   0.4 SSE | 147 0.00 7.8   0.2 91.5   0.3 0.00 69.0   0.8 89.4   0.0 22.5   1.6
Searchlight 9/3/26 2230 73.6   0.1 20   2 29.6   2.5 3.2   2.6 SE | 126 5.1   1.5 SE | 146 0.00 5.8   0.1 88.2   1.5 0.00 65.4   0.2 88.1   1.8 26.3   0.9
Laughlin 9/3/26 2230 88.4   3.0 14   2 33.3   1.5 4.4   0.2 SW | 232 7.1   1.0 S | 178 0.00 4.6   0.0 100.0   1.3 0.00 77.4   3.1 101.6   1.7 27.0   3.1
31Mission Hills 9/3/26 2230 83.1   1.3 13   3 26.5   4.5 7.0   3.4 SSE | 158 10.7   7.2 SE | 124 0.00 6.6   0.3 90.4   0.5 0.00 74.2   0.6 93.7   0.9 32.5   0.6
32 Enterprise Sierra Cliffs 9/3/26 2230 82.2   1.0 13   3 26.2   6.4 6.8   7.4 SE | 143 11.7   13.0 SSE | 147 0.00 1.4   0.0 87.6   0.2 0.00 72.8   0.5 89.8   0.7 30.7   5.7
29 Calico Basin 9/3/26 2230 79.2   0.2 14   6 26.0   12.6 7.0   3.9 S | 176 11.7   4.6 SSE | 161 0.00 2.4   0.0 87.0   0.2 0.00 67.7   1.5 86.1   0.4 29.6   13.7
28 Indian Springs 9/3/26 2230 77.0   2.8 16   9 27.5   20.3 1.0   3.8 S | 183 2.5   4.2 SSE | 160 0.00 4.5   0.1 88.8   0.3 0.00 61.6   1.2 92.1   1.3 33.0   1.4
30 Jean 9/3/26 2230 79.3   0.7 13   1 24.6   2.3 10.6   2.2 SSW | 212 14.7   0.1 SSW | 204 0.00 5.0   0.1 87.8   0.2 0.00 65.5   1.9 89.7   0.3 28.9   7.3
VC Highlands NW 9/3/26 2230 52.8   1.9 54   3 36.5   0.6 7.1   2.1 S | 184 19.8   8.0 S | 184 0.00 1.6   0.0 66.9   3.3 0.00 48.8   1.8 63.0   5.4 25.2   7.2
Glenbrook-Spooner Summit 9/3/26 2230 48.3   0.4 62   5 36.0   2.6 5.5   3.8 WSW | 256 13.3   10.8 WSW | 251 0.00 7.7   0.1 66.4   3.0 0.00 46.4   4.9 56.7   0.5 29.7   1.1
Hobo Hot Springs 9/3/26 2230 61.0   0.4 43   10 38.7   6.9 10.5   0.4 SW | 222 16.9   3.8 SW | 227 0.00 1.1   0.1 71.3   1.3 0.00 49.6   1.1 70.9   0.7 38.0   3.9
Jack Valley Ranch 2 9/3/26 2230 57.8   0.3 48   13 38.3   7.9 6.2   4.2 S | 184 14.5   8.9 S | 186 0.00 2.1   0.0 74.4   0.7 0.00 54.1   2.5 67.8   0.7 30.2   5.1
Genoa North 2 9/3/26 2230 59.8   1.2 44   5 38.1   3.8 4.9   0.9 SSW | 202 14.5   1.4 SSW | 200 0.00 0.9   0.0 76.0   1.1 0.00 53.5   0.2 70.0   0.5 34.0   5.2
Mottsville 2 9/3/26 2230 60.7   5.3 43   2 38.2   6.1 3.5   2.2 S | 174 11.8   8.2 SSE | 156 0.00 1.3   0.0 72.2   1.8 0.00 49.5   3.3 71.2   0.9 24.7   12.2
Kingsbury Village 3 9/3/26 2230 44.6   2.0 71   5 35.6   0.4 1.4   0.1 SSW | 192 5.3   4.0 SSE | 152 0.00 3.3   0.0 61.6   3.2 0.00 40.4   1.3 55.7   1.1 16.4   3.0
Kingsbury-Benjamin Dr 2 9/3/26 2230 46.6   2.2 67   7 36.2   0.2 2.6   0.4 WSW | 255 13.0   3.1 SW | 222 0.00 3.0   0.1 68.5   1.8 0.00 41.9   1.4 58.3   0.9 25.0   1.7
Smith Valley-Wellington 9/3/26 2230 63.2   2.2 39   6 37.9   6.0 6.0   3.9 SW | 231 10.8   8.3 SW | 216 0.00 3.6   0.0 81.0   0.1 0.00 57.4   2.6 74.8   1.9 31.0   3.4
Sheridan South 2 9/3/26 2230 60.2   0.9 43   9 37.8   6.5 9.0   3.2 SE | 130 16.2   4.5 ESE | 116 0.00 0.5   0.0 74.0   0.7 0.00 47.3   1.2 70.9   0.5 31.2   0.2
Silver Springs 9/3/26 2230 64.7   1.9 38   4 38.4   4.6 15.3   6.0 WSW | 248 22.7   5.1 SW | 232 0.00 5.0   0.0 78.9   0.2 0.00 54.2   0.1 76.1   1.7 42.5   3.1
Fernley 9/3/26 2230 64.8   2.8 37   3 37.8   4.5 8.6   3.9 SW | 234 15.0   0.7 SW | 220 0.00 3.2   0.0 76.6   0.5 0.00 54.0   0.8 75.5   1.6 40.5   10.9
Spanish Springs 9/3/26 2230 61.8   1.2 45   14 40.4   10.1 8.2   3.3 SSW | 196 14.9   4.7 SSW | 202 0.00 10.4   0.1 76.7   0.2 0.00 57.4   4.9 70.3   1.8 27.0   1.2
Suttcliffe South 2 9/3/26 2230 61.8   1.2 47   11 41.5   7.7 9.0   4.9 WSW | 250 14.3   7.5 WSW | 250 0.00 4.2   0.1 72.3   2.1 0.00 56.5   8.8 71.1   0.5 42.6   11.6
Lemmon Valley North 9/3/26 2230 56.6   1.6 56   10 41.2   6.3 9.6   1.4 S | 177 14.5   4.8 SSW | 192 0.00 2.0   0.1 70.6   0.4 0.00 48.9   3.2 66.5   0.6 32.4   1.5
Lemmon Valley NW 3 9/3/26 2230 57.8   0.2 55   25 41.5   15.4 12.8   5.3 SW | 233 22.0   7.1 SW | 233 0.00 1.3   0.0 74.7   1.7 0.00 52.8   3.1 68.7   1.1 32.2   6.1
VC Highlands North 9/3/26 2230 54.9   2.2 50   2 36.8   1.0 4.4   0.8 SSW | 203 11.4   0.2 SSW | 200 0.00 4.8   0.2 71.3   5.9 0.00 50.2   7.3 63.6   4.1 30.1   3.2
Upper Voltaire Cyn 9/3/26 2230 55.4   0.7 51   11 37.4   6.8 14.9   9.9 S | 180 28.2   16.1 SSE | 147 0.00 1.2   0.0 70.2   1.4 0.00 53.5   4.1 64.1   0.1 43.5   10.2
Yerington NW 9/3/26 2230 63.2   1.8 42   12 40.0   9.7 14.2   9.7 W | 263 20.6   13.8 W | 260 0.00 7.3   0.0 75.3   0.6 0.00 49.5   5.5 75.4   3.5 41.7   9.7
Spanish Springs SW 9/3/26 2230 60.4   2.0 46   9 39.4   7.3 7.2   1.7 S | 190 12.9   1.2 S | 187 0.00 1.5   0.1 77.2   0.4 0.00 56.4   3.5 70.4   2.0 35.2   4.2
Cosgrave 2 8/27/26 0750 62.9   4.1 34   3 33.8   1.4 2.6   0.5 WSW | 246 4.1   1.0 W | 267 0.00 3.8   0.1 77.4   2.9 0.00 62.7   3.3 77.4   3.5 11.2   3.9
Winnemucca-Grass Valley 2 9/3/26 2230 64.4   10.3 39   4 39.1   6.6 8.2   4.8 W | 274 16.3   11.6 WNW | 292 0.00 7.8   0.0 68.7   1.2 0.00 48.9   5.5 74.4   6.5 31.8   3.5
Winnemucca-Dutch Flat Rd 9/3/26 2230 61.0   3.2 45   9 39.7   8.6 14.8   10.2 WSW | 251 28.0   20.4 WSW | 254 0.00 6.2   0.0 74.0   0.6 0.00 54.3   1.9 74.6   6.4 30.8   0.0
Paradise Valley 2 9/3/26 2230 62.8   5.1 42   3 39.4   6.8 9.7   8.1 WSW | 245 18.1   15.1 SW | 231 0.00 12.5   0.2 72.3   1.8 0.00 52.3   0.7 72.5   3.8 24.2   1.7
Golconda 2 9/3/26 2230 62.7   1.7 42   11 39.4   8.8 13.1   4.9 NW | 313 20.4   9.8 NW | 313 0.00 1.9   0.0 77.0   2.0 0.00 53.2   2.2 75.1   6.9 25.7   11.5
Battle Mountain - South 9/3/26 2230 62.8   3.4 42   14 39.3   12.8 9.2   7.3 N | 355 15.5   13.0 N | 354 0.00 9.3   0.1 75.6   0.8 0.00 52.1   9.7 78.6   8.3 27.1   0.5
Geiger Summit 9/3/26 2230 51.2   2.9 100   0 51.2   2.9 8.7   5.4 S | 190 14.9   6.2 SSW | 201 0.00 6.4   0.4 65.1   2.5 0.00 47.0   4.2 60.9   3.3 35.2   14.7
Combs Canyon 3 9/3/26 2230 59.8   1.0 44   10 37.8   7.3 8.5   0.0 SSW | 198 18.1   4.5 S | 170 0.00 1.0   0.0 74.8   1.0 0.00 54.2   2.0 69.7   1.8 28.9   1.7
Clear Creek 9/3/26 2230 55.7   0.9 50   7 37.4   4.9 8.4   4.2 SSE | 151 18.1   9.2 SSE | 147 0.00 3.4   0.1 69.8   2.8 0.00 53.2   3.2 64.9   0.3 31.2   7.6
Eastlake 2 9/3/26 2230 59.4   2.9 45   4 38.2   4.9 15.2   11.7 SSE | 150 25.5   18.1 SSE | 158 0.00 3.4   0.1 72.0   1.5 0.00 54.6   2.1 67.0   0.1 29.3   0.7
Lovelock-Colado 2 9/3/26 2230 61.0   0.7 45   14 39.5   8.6 4.1   1.0 SE | 146 7.1   0.1 SE | 134 0.00 - 76.9   1.2 0.00 54.1   8.5 77.4   5.9 25.0   4.0
Spanish Springs NW 9/3/26 2230 61.9   1.6 44   10 40.0   7.9 6.6   1.2 SSW | 192 12.2   7.0 S | 187 0.00 12.3   0.1 69.2   1.3 0.00 57.2   4.0 68.6   1.5 30.9   7.1
Battle Mountain NW 9/3/26 2230 62.5   0.4 42   15 39.4   11.6 5.9   0.3 NW | 325 9.4   2.5 NW | 310 0.00 8.8   0.0 76.9   0.8 0.00 52.3   3.5 78.4   9.1 34.2   5.6
Austin 2 9/3/26 2130 52.4   3.2 43   17 30.8   9.3 5.4   3.0 SSW | 212 7.6   3.1 SSW | 208 0.00 2.5   0.2 70.6   4.0 0.00 36.8   0.5 75.0   6.5 37.1   10.7
Elko-Osino 9/3/26 2230 62.6   3.5 27   3 28.4   5.3 5.5   0.3 S | 191 9.9   3.2 SSW | 196 0.00 1.5   0.1 79.4   2.6 0.00 52.1   0.2 78.6   7.3 27.3   0.8
Elko-Bill Fishpond 2 9/3/26 2230 62.2   3.7 28   3 28.6   6.3 6.1   1.9 S | 179 8.8   3.1 S | 180 0.00 3.6   0.1 70.5   1.7 0.00 51.7   0.5 76.8   7.0 27.4   7.1
Spring Creek SE 2 9/3/26 2230 57.0   0.5 31   5 26.3   4.5 2.5   0.4 SSE | 167 3.8   0.2 S | 180 0.00 0.3   0.1 71.7   1.8 0.00 51.4   3.2 77.2   6.5 29.4   0.4
Spring Creek NW 9/3/26 2230 64.4   5.5 26   1 28.7   5.3 7.3   4.5 WNW | 286 11.8   6.8 WNW | 293 0.00 2.3   0.1 74.5   2.1 0.00 51.7   1.2 76.7   6.6 24.5   1.7
Elko-Moleen 9/3/26 2230 60.6   1.3 29   3 27.8   4.2 8.0   7.7 WNW | 293 10.2   8.6 WNW | 282 0.00 6.3   0.0 78.5   1.2 0.00 47.3   4.5 79.2   7.9 25.5   1.0
Elko-West 9/3/26 2230 61.4   3.6 28   1 28.4   3.6 8.8   6.7 W | 261 11.8   7.1 W | 261 0.00 33.9   0.7 68.9   1.6 0.00 45.4   6.1 79.4   8.0 29.7   5.6
Elko-Adobe Creek 9/3/26 2230 58.6   4.4 31   1 28.1   4.8 2.4   2.1 WNW | 283 6.1   0.2 WNW | 294 0.00 18.7   0.1 69.6   0.8 0.00 48.4   2.8 70.6   7.7 34.4   3.2
Tuscarora SW 9/3/26 2230 57.6   3.1 33   1 28.5   3.4 1.0   1.9 SSE | 161 2.7   2.2 SSE | 155 0.00 6.9   0.0 72.9   0.3 0.00 47.1   4.3 72.7   8.2 31.0   2.9
Elko-Monument Peak 9/3/26 2230 54.6   1.6 31   3 24.8   1.0 3.1   3.2 SE | 130 5.1   4.5 SE | 132 0.00 3.9   0.2 71.5   1.5 0.00 44.2   6.9 72.4   6.6 29.4   2.5
Wild Horse 9/3/26 2230 58.7   5.1 35   2 31.3   3.2 5.2   3.2 NW | 306 8.4   2.7 NW | 313 0.00 4.6   0.0 67.9   1.2 0.00 47.7   0.8 69.6   7.5 29.7   4.6
Max     89.0 100 51.2 28.5 - 40.5 - 0.00 43.2 100.0 0.02 77.8 101.6 50.6
Avg     60.5 45 36.3 7.4 - 14.1 - 0.00 7.1 73.4 - - - -
Min     44.6 13 21.1 1.0 - 2.5 - 0.00 0.3 32.0 0.00 11.2 50.7 13.2